Time;durP1;ratioP1;P1;durP2;ratioP2;P2;SDS_P1;SDS_P2;PMS_P1;PMS_P2;Temp;Humidity;BMP_temperature;BMP_pressure;BME280_temperature;BME280_humidity;BME280_pressure;Samples;Min_cycle;Max_cycle;Signal;HPM_P1;HPM_P2
2022/11/01 00:00:11;;;;;;;12.80;5.70;;;17.20;99.90;;;;;;5103775;27;20031;-72
2022/11/01 00:02:36;;;;;;;7.63;4.93;;;17.10;99.90;;;;;;5102733;28;20054;-72
2022/11/01 00:05:02;;;;;;;13.25;5.35;;;17.20;99.90;;;;;;5110027;28;20024;-72
2022/11/01 00:07:28;;;;;;;13.00;4.93;;;17.20;99.90;;;;;;5105066;28;20062;-72
2022/11/01 00:09:53;;;;;;;10.80;5.32;;;17.20;99.90;;;;;;5108254;28;20531;-72
2022/11/01 00:12:19;;;;;;;14.82;5.10;;;17.30;99.90;;;;;;5105803;28;20023;-72
2022/11/01 00:14:45;;;;;;;14.27;5.30;;;17.20;99.90;;;;;;5105194;28;20024;-71
2022/11/01 00:17:10;;;;;;;12.20;5.60;;;17.30;99.90;;;;;;5101441;28;20031;-72
2022/11/01 00:19:36;;;;;;;11.65;5.32;;;17.30;99.90;;;;;;5103832;28;20043;-71
2022/11/01 00:22:02;;;;;;;11.52;5.03;;;17.30;99.90;;;;;;5104216;28;20501;-72
2022/11/01 00:24:30;;;;;;;11.93;5.07;;;17.40;99.90;;;;;;5103891;28;20539;-71
2022/11/01 00:26:56;;;;;;;8.82;4.70;;;17.40;99.90;;;;;;5109110;28;20015;-72
2022/11/01 00:29:22;;;;;;;12.10;5.40;;;17.40;99.90;;;;;;5102952;28;20023;-72
2022/11/01 00:31:48;;;;;;;7.47;4.43;;;17.30;99.90;;;;;;5105632;28;20028;-71
2022/11/01 00:34:14;;;;;;;12.30;4.75;;;17.40;99.90;;;;;;5087763;28;20015;-71
2022/11/01 00:36:40;;;;;;;12.02;4.82;;;17.40;99.90;;;;;;5104814;28;20023;-71
2022/11/01 00:39:06;;;;;;;13.27;5.32;;;17.40;99.90;;;;;;5104600;28;20023;-71
2022/11/01 00:41:33;;;;;;;9.38;5.10;;;17.40;99.90;;;;;;5104995;28;20036;-71
2022/11/01 00:43:59;;;;;;;10.48;5.03;;;17.40;99.90;;;;;;5104762;28;20101;-71
2022/11/01 00:46:24;;;;;;;12.45;4.65;;;17.40;99.90;;;;;;5103307;28;20132;-71
2022/11/01 00:48:50;;;;;;;11.43;5.28;;;17.50;99.90;;;;;;5104882;28;20753;-71
2022/11/01 00:51:15;;;;;;;20.45;5.55;;;17.40;99.90;;;;;;5106444;28;20031;-71
2022/11/01 00:53:41;;;;;;;14.65;5.10;;;17.50;99.90;;;;;;5106294;28;20061;-71
2022/11/01 00:56:07;;;;;;;11.50;4.70;;;17.50;99.90;;;;;;5108903;28;20388;-71
2022/11/01 00:58:33;;;;;;;9.18;4.60;;;17.50;99.90;;;;;;5100390;28;20427;-72
2022/11/01 01:00:59;;;;;;;10.88;4.97;;;17.50;99.90;;;;;;5101771;28;20121;-72
2022/11/01 01:03:25;;;;;;;10.10;5.15;;;17.60;99.90;;;;;;5105624;28;20023;-72
2022/11/01 01:05:52;;;;;;;13.80;5.22;;;17.50;99.90;;;;;;5101284;28;20039;-72
2022/11/01 01:08:18;;;;;;;10.60;5.30;;;17.50;99.90;;;;;;5103235;28;20106;-73
2022/11/01 01:10:43;;;;;;;12.38;5.18;;;17.50;99.90;;;;;;5108430;28;20122;-71
2022/11/01 01:13:09;;;;;;;17.88;4.80;;;17.60;99.90;;;;;;5103283;28;20024;-72
2022/11/01 01:15:37;;;;;;;12.65;5.35;;;17.50;99.90;;;;;;5102430;28;20023;-72
2022/11/01 01:18:03;;;;;;;12.13;5.53;;;17.50;99.90;;;;;;5105873;28;20032;-72
2022/11/01 01:20:28;;;;;;;11.25;5.28;;;17.50;99.90;;;;;;5105556;28;20583;-72
2022/11/01 01:22:54;;;;;;;11.00;5.35;;;17.60;99.90;;;;;;5107995;28;20091;-72
2022/11/01 01:25:20;;;;;;;11.10;4.95;;;17.60;99.90;;;;;;5105956;28;20019;-72
2022/11/01 01:27:46;;;;;;;11.20;5.38;;;17.70;99.90;;;;;;5087110;28;20031;-71
2022/11/01 01:30:11;;;;;;;9.30;4.25;;;17.70;99.90;;;;;;5107545;28;20023;-71
2022/11/01 01:32:37;;;;;;;9.57;4.43;;;17.70;99.90;;;;;;5100714;28;20056;-72
2022/11/01 01:35:03;;;;;;;10.98;4.78;;;17.60;99.90;;;;;;5109314;28;20028;-72
2022/11/01 01:37:29;;;;;;;14.18;5.05;;;17.60;99.90;;;;;;5107847;28;20479;-71
2022/11/01 01:39:55;;;;;;;15.38;6.05;;;17.60;99.90;;;;;;5108473;28;20059;-71
2022/11/01 01:42:30;;;;;;;12.50;4.75;;;17.60;99.90;;;;;;5110297;28;20517;-72
2022/11/01 01:44:56;;;;;;;12.43;5.35;;;17.60;99.90;;;;;;5087298;28;20459;-72
2022/11/01 01:47:23;;;;;;;7.63;4.88;;;17.60;99.90;;;;;;5111796;28;20106;-73
2022/11/01 01:49:55;;;;;;;12.60;5.00;;;17.60;99.90;;;;;;5110549;28;20055;-72
2022/11/01 01:52:22;;;;;;;9.50;5.07;;;17.70;99.90;;;;;;5110300;28;20016;-72
2022/11/01 01:54:49;;;;;;;11.45;4.90;;;17.70;99.90;;;;;;5109870;28;20012;-71
2022/11/01 01:57:16;;;;;;;12.43;4.80;;;17.80;99.90;;;;;;5106124;28;20019;-72
2022/11/01 01:59:42;;;;;;;9.63;4.32;;;17.70;99.90;;;;;;5108310;28;20127;-72
2022/11/01 02:02:09;;;;;;;9.95;4.88;;;17.80;99.90;;;;;;5103831;28;20474;-72
2022/11/01 02:04:46;;;;;;;11.40;4.45;;;17.70;99.90;;;;;;5109748;28;20020;-72
2022/11/01 02:07:12;;;;;;;9.93;5.30;;;17.80;99.90;;;;;;5102210;28;20028;-72
2022/11/01 02:09:38;;;;;;;11.82;5.03;;;17.80;99.90;;;;;;5109711;28;20092;-72
2022/11/01 02:12:04;;;;;;;11.32;5.45;;;17.70;99.90;;;;;;5106466;28;20027;-72
2022/11/01 02:14:30;;;;;;;9.35;4.45;;;17.80;99.90;;;;;;5109559;28;20027;-72
2022/11/01 02:17:14;;;;;;;10.73;4.43;;;17.80;99.90;;;;;;5109157;28;20027;-72
2022/11/01 02:20:04;;;;;;;10.00;4.35;;;17.70;99.90;;;;;;5109452;28;20130;-72
2022/11/01 02:22:58;;;;;;;9.75;4.38;;;17.80;99.90;;;;;;5104381;27;20076;-71
2022/11/01 02:25:29;;;;;;;8.68;4.45;;;17.80;99.90;;;;;;5105596;28;20047;-71
2022/11/01 02:28:14;;;;;;;8.25;4.45;;;17.80;99.90;;;;;;5102499;27;20032;-72
2022/11/01 02:30:56;;;;;;;8.70;4.15;;;17.80;99.90;;;;;;5089751;28;20023;-71
2022/11/01 02:33:38;;;;;;;10.63;4.38;;;17.80;99.90;;;;;;5088919;28;20062;-71
2022/11/01 02:36:31;;;;;;;10.15;4.13;;;17.80;99.90;;;;;;5107480;28;20055;-71
2022/11/01 02:39:18;;;;;;;9.57;4.93;;;17.80;99.90;;;;;;5095266;28;20454;-72
2022/11/01 02:42:00;;;;;;;9.23;4.15;;;17.80;99.90;;;;;;5107014;28;20038;-71
2022/11/01 02:44:30;;;;;;;9.05;4.32;;;17.80;99.90;;;;;;5105440;28;20024;-74
2022/11/01 02:47:00;;;;;;;13.10;4.95;;;17.80;99.90;;;;;;5102745;27;20039;-71
2022/11/01 02:49:37;;;;;;;11.02;4.32;;;17.80;99.90;;;;;;5108875;28;20406;-72
2022/11/01 02:52:06;;;;;;;10.05;4.03;;;17.80;99.90;;;;;;5105505;28;21139;-72
2022/11/01 02:54:38;;;;;;;7.63;4.15;;;17.80;99.90;;;;;;5091823;28;20077;-71
2022/11/01 02:57:35;;;;;;;12.03;4.97;;;17.70;99.90;;;;;;5103192;28;20065;-72
2022/11/01 03:00:20;;;;;;;10.25;4.40;;;17.70;99.90;;;;;;5107508;28;20042;-71
2022/11/01 03:02:45;;;;;;;12.43;4.28;;;17.70;99.90;;;;;;5104976;28;20024;-72
2022/11/01 03:05:48;;;;;;;9.27;4.68;;;17.60;99.90;;;;;;5107328;28;20544;-72
2022/11/01 03:08:20;;;;;;;9.80;3.67;;;17.60;99.90;;;;;;5106454;28;20034;-72
2022/11/01 03:11:10;;;;;;;7.35;3.83;;;17.60;99.90;;;;;;5104102;28;20020;-72
2022/11/01 03:13:59;;;;;;;10.13;4.38;;;17.60;99.90;;;;;;5106133;28;20055;-72
2022/11/01 03:16:43;;;;;;;10.00;3.97;;;17.70;99.90;;;;;;5106166;28;20020;-72
2022/11/01 03:19:41;;;;;;;6.43;3.58;;;17.60;99.90;;;;;;5110248;28;20035;-71
2022/11/01 03:22:12;;;;;;;9.52;3.65;;;17.60;99.90;;;;;;5103167;28;22819;-72
2022/11/01 03:24:51;;;;;;;9.20;4.22;;;17.60;99.90;;;;;;5104355;28;20417;-72
2022/11/01 03:27:22;;;;;;;8.20;3.97;;;17.70;99.90;;;;;;5105442;28;20570;-72
2022/11/01 03:29:55;;;;;;;8.75;3.50;;;17.70;99.90;;;;;;5106064;28;20054;-72
2022/11/01 03:32:26;;;;;;;10.07;3.22;;;17.70;99.90;;;;;;5086240;28;20012;-72
2022/11/01 03:34:52;;;;;;;7.22;2.58;;;17.70;99.90;;;;;;5087590;28;20020;-72
2022/11/01 03:37:19;;;;;;;10.43;2.88;;;17.60;99.90;;;;;;5109151;28;20020;-71
2022/11/01 03:39:50;;;;;;;2.67;1.98;;;17.60;99.90;;;;;;5103842;28;20108;-72
2022/11/01 03:42:20;;;;;;;5.97;2.30;;;17.60;99.90;;;;;;5107854;28;20031;-71
2022/11/01 03:45:13;;;;;;;4.38;1.83;;;17.60;99.90;;;;;;5105397;28;20024;-71
2022/11/01 03:47:39;;;;;;;6.00;2.15;;;17.60;99.90;;;;;;5102960;28;20035;-71
2022/11/01 03:50:19;;;;;;;7.00;1.70;;;17.50;99.90;;;;;;5099691;28;20104;-72
2022/11/01 03:52:46;;;;;;;5.20;1.55;;;17.40;99.90;;;;;;5102090;28;20019;-72
2022/11/01 03:55:19;;;;;;;1.90;1.10;;;17.30;99.90;;;;;;5107494;28;20031;-73
2022/11/01 03:57:46;;;;;;;3.90;1.75;;;17.30;99.90;;;;;;5099708;28;20388;-72
2022/11/01 04:00:14;;;;;;;6.03;1.33;;;17.30;99.90;;;;;;5111098;28;20047;-72
2022/11/01 04:02:41;;;;;;;3.15;1.20;;;17.20;99.90;;;;;;5093120;28;20032;-72
2022/11/01 04:05:08;;;;;;;2.83;1.40;;;17.30;99.90;;;;;;5105332;28;20032;-72
2022/11/01 04:07:33;;;;;;;3.17;1.15;;;17.20;99.90;;;;;;5088649;28;20019;-72
2022/11/01 04:09:59;;;;;;;4.40;1.17;;;17.10;99.90;;;;;;5108864;28;20499;-72
2022/11/01 04:12:25;;;;;;;4.75;1.23;;;17.20;99.90;;;;;;5104143;28;20031;-72
2022/11/01 04:20:34;;;;;;;1.63;1.20;;;16.90;99.90;;;;;;5100254;28;20059;-71
2022/11/01 04:23:05;;;;;;;3.55;1.02;;;16.90;99.90;;;;;;5100571;28;20023;-71
2022/11/01 04:25:32;;;;;;;1.88;0.75;;;16.90;99.90;;;;;;5104036;28;20016;-71
2022/11/01 04:27:58;;;;;;;6.13;1.20;;;16.80;99.90;;;;;;5104901;28;20027;-72
2022/11/01 04:30:28;;;;;;;3.08;1.00;;;16.80;99.90;;;;;;5086435;28;20024;-71
2022/11/01 04:32:54;;;;;;;3.92;1.15;;;16.80;99.90;;;;;;5105953;28;20020;-71
2022/11/01 04:35:21;;;;;;;1.67;0.88;;;16.70;99.90;;;;;;5104664;28;20031;-71
2022/11/01 04:37:47;;;;;;;1.45;0.85;;;16.70;99.90;;;;;;5105571;28;20024;-72
2022/11/01 04:40:13;;;;;;;2.50;0.80;;;16.70;99.90;;;;;;5101961;28;20032;-71
2022/11/01 04:42:39;;;;;;;5.00;0.93;;;16.60;99.90;;;;;;5109772;28;20097;-72
2022/11/01 04:45:07;;;;;;;1.67;0.80;;;16.60;99.90;;;;;;5092563;28;20073;-71
2022/11/01 04:47:33;;;;;;;7.85;1.02;;;16.50;99.90;;;;;;5103956;28;20023;-72
2022/11/01 04:49:59;;;;;;;3.40;0.80;;;16.50;99.90;;;;;;5089955;28;20020;-72
2022/11/01 04:52:25;;;;;;;2.78;0.90;;;16.50;99.90;;;;;;5106029;28;20102;-72
2022/11/01 04:54:51;;;;;;;2.10;0.98;;;16.40;99.90;;;;;;5108830;28;20153;-72
2022/11/01 04:57:23;;;;;;;2.92;0.98;;;16.40;99.90;;;;;;5100907;28;20102;-72
2022/11/01 04:59:50;;;;;;;2.15;0.60;;;16.30;99.90;;;;;;5108541;28;20047;-72
2022/11/01 05:02:16;;;;;;;2.72;1.00;;;16.30;99.90;;;;;;5099133;28;20114;-71
2022/11/01 05:04:41;;;;;;;5.13;0.93;;;16.20;99.90;;;;;;5101628;28;20146;-72
2022/11/01 05:07:07;;;;;;;5.68;1.10;;;16.20;99.90;;;;;;5103544;28;20172;-73
2022/11/01 05:09:32;;;;;;;3.30;1.13;;;16.20;99.90;;;;;;5107076;28;20046;-71
2022/11/01 05:11:58;;;;;;;3.00;0.63;;;16.10;99.90;;;;;;5104553;28;20516;-72
2022/11/01 05:14:23;;;;;;;4.25;1.38;;;16.00;99.90;;;;;;5111741;28;20035;-71
2022/11/01 05:16:49;;;;;;;2.25;1.02;;;16.00;99.90;;;;;;5113205;28;20023;-72
2022/11/01 05:19:15;;;;;;;2.40;0.90;;;15.90;99.90;;;;;;5104481;27;20582;-71
2022/11/01 05:21:41;;;;;;;6.60;1.02;;;16.00;99.90;;;;;;5109808;28;20032;-71
2022/11/01 05:24:07;;;;;;;4.22;1.20;;;15.90;99.90;;;;;;5104135;28;20027;-71
2022/11/01 05:26:33;;;;;;;5.13;1.67;;;15.90;99.90;;;;;;5105020;28;20248;-72
2022/11/01 05:28:58;;;;;;;4.25;1.67;;;15.90;99.90;;;;;;5106272;28;20066;-72
2022/11/01 05:31:24;;;;;;;5.13;1.83;;;15.80;99.90;;;;;;5105861;28;20047;-72
2022/11/01 05:33:50;;;;;;;4.78;1.40;;;15.80;99.90;;;;;;5093870;28;20479;-72
2022/11/01 05:36:15;;;;;;;2.20;1.20;;;15.80;99.90;;;;;;5112768;27;20019;-72
2022/11/01 05:38:41;;;;;;;5.25;0.73;;;15.70;99.90;;;;;;5105507;28;20476;-73
2022/11/01 05:41:06;;;;;;;3.60;0.95;;;15.70;99.90;;;;;;5107812;28;20117;-72
2022/11/01 05:43:32;;;;;;;6.78;1.30;;;15.60;99.90;;;;;;5089517;28;20030;-71
2022/11/01 05:45:58;;;;;;;8.82;1.45;;;15.60;99.90;;;;;;5103163;28;20473;-71
2022/11/01 05:48:23;;;;;;;8.48;1.45;;;15.60;99.90;;;;;;5105683;28;20031;-71
2022/11/01 05:50:49;;;;;;;4.35;1.05;;;15.60;99.90;;;;;;5112567;28;20035;-72
2022/11/01 05:53:14;;;;;;;3.90;1.00;;;15.60;99.90;;;;;;5109210;28;20024;-71
2022/11/01 05:55:40;;;;;;;5.25;1.02;;;15.60;99.90;;;;;;5090836;28;20032;-72
2022/11/01 05:58:06;;;;;;;2.85;0.90;;;15.50;99.90;;;;;;5104689;28;20425;-72
2022/11/01 06:00:33;;;;;;;4.28;1.30;;;15.60;99.90;;;;;;5102841;27;20040;-71
2022/11/01 06:02:59;;;;;;;5.30;1.00;;;15.60;99.90;;;;;;5105160;28;20032;-71
2022/11/01 06:05:25;;;;;;;6.45;1.58;;;15.50;99.90;;;;;;5109739;28;20311;-71
2022/11/01 06:07:52;;;;;;;5.47;2.08;;;15.50;99.90;;;;;;5102998;28;20016;-72
2022/11/01 06:10:18;;;;;;;4.38;1.05;;;15.40;99.90;;;;;;5108726;28;20498;-71
2022/11/01 06:12:43;;;;;;;4.75;0.90;;;15.30;99.90;;;;;;5109732;28;20028;-72
2022/11/01 06:15:09;;;;;;;4.63;0.80;;;15.30;99.90;;;;;;5111772;28;20038;-71
2022/11/01 06:17:35;;;;;;;7.10;1.13;;;15.30;99.90;;;;;;5110723;28;20028;-72
2022/11/01 06:20:01;;;;;;;9.18;1.70;;;15.30;99.90;;;;;;5101884;28;20570;-72
2022/11/01 06:22:26;;;;;;;4.90;1.10;;;15.30;99.90;;;;;;5108827;28;20060;-71
2022/11/01 06:24:52;;;;;;;3.55;0.80;;;15.30;99.90;;;;;;5102107;28;20032;-71
2022/11/01 06:27:17;;;;;;;4.10;0.80;;;15.10;99.90;;;;;;5106573;27;20031;-71
2022/11/01 06:29:43;;;;;;;3.60;0.80;;;15.20;99.90;;;;;;5101987;28;20034;-71
2022/11/01 06:32:08;;;;;;;5.38;1.10;;;15.20;99.90;;;;;;5106215;28;20357;-71
2022/11/01 06:34:34;;;;;;;4.75;1.05;;;15.10;99.90;;;;;;5102401;28;20038;-72
2022/11/01 06:37:00;;;;;;;6.30;1.35;;;15.00;99.90;;;;;;5107957;28;20070;-72
2022/11/01 06:39:26;;;;;;;3.72;1.08;;;15.00;99.90;;;;;;5101043;28;20399;-71
2022/11/01 06:41:51;;;;;;;7.00;1.00;;;15.00;99.90;;;;;;5105265;28;20528;-72
2022/11/01 06:44:17;;;;;;;4.35;0.85;;;14.90;99.90;;;;;;5109397;27;20495;-71
2022/11/01 06:46:42;;;;;;;6.97;1.23;;;14.90;99.90;;;;;;5106863;28;20500;-72
2022/11/01 06:49:08;;;;;;;5.75;1.27;;;14.80;99.90;;;;;;5104409;27;20139;-72
2022/11/01 06:51:34;;;;;;;4.45;1.35;;;14.80;99.90;;;;;;5108290;28;20031;-71
2022/11/01 06:53:59;;;;;;;3.40;1.02;;;14.80;99.90;;;;;;5105552;28;20421;-72
2022/11/01 06:56:25;;;;;;;5.00;1.00;;;14.80;99.90;;;;;;5105750;28;20073;-72
2022/11/01 06:58:51;;;;;;;4.00;1.35;;;14.80;99.90;;;;;;5105875;28;20403;-72
2022/11/01 07:01:17;;;;;;;9.50;1.13;;;14.80;99.90;;;;;;5103154;27;20476;-72
2022/11/01 07:03:44;;;;;;;5.78;0.65;;;14.80;99.90;;;;;;5110256;28;20016;-72
2022/11/01 07:06:10;;;;;;;5.85;1.13;;;14.70;99.90;;;;;;5100748;27;20089;-72
2022/11/01 07:08:36;;;;;;;8.70;1.50;;;14.60;99.90;;;;;;5111018;28;20047;-73
2022/11/01 07:11:01;;;;;;;10.60;1.80;;;14.60;99.90;;;;;;5106062;27;20024;-72
2022/11/01 07:13:32;;;;;;;6.38;1.08;;;14.60;99.90;;;;;;5094084;28;20023;-72
2022/11/01 07:16:00;;;;;;;5.18;1.30;;;14.60;99.90;;;;;;5103859;27;20024;-72
2022/11/01 07:18:28;;;;;;;9.05;2.20;;;14.50;99.90;;;;;;5106585;28;20383;-72
2022/11/01 07:20:54;;;;;;;7.97;1.45;;;14.50;99.90;;;;;;5103380;28;20526;-72
2022/11/01 07:23:20;;;;;;;10.80;1.73;;;14.60;99.90;;;;;;5098091;27;20016;-72
2022/11/01 07:25:50;;;;;;;10.32;1.80;;;14.60;99.90;;;;;;5109653;28;20031;-72
2022/11/01 07:28:16;;;;;;;11.05;1.65;;;14.50;99.90;;;;;;5106292;28;20023;-73
2022/11/01 07:30:42;;;;;;;7.47;1.48;;;14.50;99.90;;;;;;5105189;28;20020;-73
2022/11/01 07:33:08;;;;;;;8.55;1.67;;;14.60;99.90;;;;;;5090720;28;20104;-73
2022/11/01 07:35:34;;;;;;;11.02;1.95;;;14.50;99.90;;;;;;5101968;28;20384;-74
2022/11/01 07:38:00;;;;;;;7.35;1.83;;;14.40;99.90;;;;;;5109204;28;20046;-72
2022/11/01 07:40:27;;;;;;;9.43;1.77;;;14.40;99.90;;;;;;5104914;28;20471;-72
2022/11/01 07:42:55;;;;;;;8.57;1.50;;;14.40;99.90;;;;;;5112398;28;20020;-72
2022/11/01 07:45:21;;;;;;;8.05;1.52;;;14.40;99.90;;;;;;5088937;28;20028;-72
2022/11/01 07:47:47;;;;;;;8.88;1.73;;;14.40;99.90;;;;;;5105822;28;20530;-72
2022/11/01 07:50:13;;;;;;;9.55;1.90;;;14.50;99.90;;;;;;5101925;28;20024;-72
2022/11/01 07:52:38;;;;;;;11.20;1.92;;;14.50;99.90;;;;;;5102486;28;20388;-72
2022/11/01 07:55:04;;;;;;;10.55;1.52;;;14.50;99.90;;;;;;5107676;28;20113;-72
2022/11/01 07:57:30;;;;;;;13.50;2.17;;;14.50;99.90;;;;;;5100015;28;20272;-72
2022/11/01 07:59:56;;;;;;;11.82;1.88;;;14.50;99.90;;;;;;5107476;28;20548;-72
2022/11/01 08:02:21;;;;;;;7.88;1.58;;;14.50;99.90;;;;;;5105680;28;20027;-73
2022/11/01 08:04:47;;;;;;;11.93;2.45;;;14.50;99.90;;;;;;5091823;28;20023;-72
2022/11/01 08:07:12;;;;;;;9.15;2.08;;;14.60;99.90;;;;;;5089744;28;20128;-72
2022/11/01 08:09:38;;;;;;;7.15;2.08;;;14.60;99.90;;;;;;5111301;28;20016;-72
2022/11/01 08:12:04;;;;;;;14.75;2.45;;;14.60;99.90;;;;;;5105537;28;20097;-72
2022/11/01 08:14:29;;;;;;;13.57;2.13;;;14.60;99.90;;;;;;5109361;28;20379;-72
2022/11/01 08:16:59;;;;;;;12.13;1.98;;;14.60;99.90;;;;;;5107165;28;20032;-72
2022/11/01 08:19:25;;;;;;;8.75;1.80;;;14.60;99.90;;;;;;5102260;28;20036;-72
2022/11/01 08:21:50;;;;;;;11.07;2.42;;;14.70;99.90;;;;;;5103000;28;20384;-73
2022/11/01 08:24:16;;;;;;;10.98;2.13;;;14.70;99.90;;;;;;5104964;28;20028;-72
2022/11/01 08:26:42;;;;;;;11.77;1.80;;;14.70;99.90;;;;;;5107058;28;20032;-72
2022/11/01 08:29:08;;;;;;;13.70;2.15;;;14.70;99.90;;;;;;5103260;28;20077;-72
2022/11/01 08:31:39;;;;;;;15.43;2.00;;;14.70;99.90;;;;;;5107095;28;20391;-72
2022/11/01 08:34:05;;;;;;;13.70;2.85;;;14.70;99.90;;;;;;5110419;28;20016;-72
2022/11/01 08:36:31;;;;;;;11.90;1.88;;;14.70;99.90;;;;;;5102615;28;20375;-73
2022/11/01 08:38:57;;;;;;;9.93;1.95;;;14.70;99.90;;;;;;5101862;28;20380;-72
2022/11/01 08:41:23;;;;;;;9.43;2.35;;;14.70;99.90;;;;;;5090794;28;20036;-72
2022/11/01 08:43:48;;;;;;;11.13;2.38;;;14.70;99.90;;;;;;5106064;28;20023;-72
2022/11/01 08:46:14;;;;;;;9.70;2.58;;;14.90;99.90;;;;;;5082802;28;20020;-72
2022/11/01 08:48:40;;;;;;;6.05;2.10;;;14.80;99.90;;;;;;5104921;28;20023;-72
2022/11/01 08:51:05;;;;;;;8.07;1.60;;;14.80;99.90;;;;;;5103886;28;20385;-73
2022/11/01 08:53:31;;;;;;;9.82;1.65;;;14.80;99.90;;;;;;5105969;28;20023;-72
2022/11/01 08:55:57;;;;;;;9.55;1.52;;;14.80;99.90;;;;;;5102638;28;20396;-72
2022/11/01 08:58:23;;;;;;;12.05;1.70;;;14.80;99.90;;;;;;5107731;28;20024;-73
2022/11/01 09:00:49;;;;;;;11.55;2.33;;;14.90;99.90;;;;;;5102372;28;20027;-72
2022/11/01 09:03:15;;;;;;;10.80;1.92;;;14.80;99.90;;;;;;5104036;28;20028;-73
2022/11/01 09:05:40;;;;;;;10.68;1.92;;;15.00;99.90;;;;;;5106086;28;20061;-72
2022/11/01 09:08:06;;;;;;;11.23;2.15;;;15.00;99.90;;;;;;5088671;28;20030;-73
2022/11/01 09:10:32;;;;;;;12.25;1.98;;;15.10;99.90;;;;;;5103331;28;20089;-73
2022/11/01 09:12:59;;;;;;;9.90;1.80;;;15.20;99.90;;;;;;5105513;28;20569;-71
2022/11/01 09:15:25;;;;;;;11.80;2.20;;;15.20;99.90;;;;;;5105581;28;20031;-73
2022/11/01 09:17:51;;;;;;;13.05;1.83;;;15.30;99.90;;;;;;5103680;28;20020;-72
2022/11/01 09:20:17;;;;;;;10.15;1.90;;;15.30;99.90;;;;;;5106600;28;20032;-72
2022/11/01 09:22:43;;;;;;;14.57;2.15;;;15.40;99.90;;;;;;5103459;28;20085;-72
2022/11/01 09:25:10;;;;;;;12.82;2.20;;;15.50;99.90;;;;;;5109973;28;20561;-72
2022/11/01 09:27:35;;;;;;;10.70;2.22;;;15.50;99.90;;;;;;5083691;28;20027;-72
2022/11/01 09:30:03;;;;;;;15.05;2.75;;;15.60;99.90;;;;;;5105184;28;20097;-72
2022/11/01 09:32:28;;;;;;;9.70;2.30;;;15.60;99.90;;;;;;5086767;28;20521;-73
2022/11/01 09:34:54;;;;;;;7.65;1.85;;;15.70;99.90;;;;;;5102081;28;20023;-72
2022/11/01 09:37:20;;;;;;;14.57;2.33;;;15.80;99.90;;;;;;5106727;28;20028;-72
2022/11/01 09:39:45;;;;;;;9.40;1.85;;;15.90;99.90;;;;;;5104391;28;20062;-73
2022/11/01 09:42:17;;;;;;;12.75;2.55;;;15.90;99.90;;;;;;5107123;28;20024;-72
2022/11/01 09:44:46;;;;;;;14.93;2.90;;;16.00;99.90;;;;;;5103077;28;20030;-73
2022/11/01 09:47:20;;;;;;;15.40;2.50;;;16.00;99.90;;;;;;5104426;28;20058;-73
2022/11/01 09:49:50;;;;;;;14.55;2.47;;;16.20;99.90;;;;;;5106488;28;20043;-73
2022/11/01 09:52:22;;;;;;;14.73;2.33;;;16.10;99.90;;;;;;5102496;28;20030;-73
2022/11/01 09:54:48;;;;;;;10.00;2.33;;;16.20;99.90;;;;;;5084951;28;20388;-72
2022/11/01 09:57:43;;;;;;;12.40;2.05;;;16.40;99.90;;;;;;5108694;28;20035;-72
2022/11/01 10:00:16;;;;;;;12.68;2.38;;;16.30;99.90;;;;;;5092013;28;20147;-72
2022/11/01 10:03:23;;;;;;;9.68;2.50;;;16.40;99.90;;;;;;5109206;28;20047;-72
2022/11/01 10:06:01;;;;;;;13.00;2.45;;;16.50;99.90;;;;;;5091240;28;20060;-73
2022/11/01 10:08:41;;;;;;;10.52;2.22;;;16.60;99.90;;;;;;5105160;27;20480;-73
2022/11/01 10:11:10;;;;;;;11.38;2.15;;;16.60;99.90;;;;;;5105954;28;20023;-73
2022/11/01 10:14:17;;;;;;;11.95;2.50;;;16.60;99.90;;;;;;5107377;28;20034;-72
2022/11/01 10:17:04;;;;;;;14.80;2.22;;;16.70;99.90;;;;;;5108200;28;20118;-73
2022/11/01 10:19:32;;;;;;;11.95;2.90;;;16.90;99.90;;;;;;5086716;27;20042;-72
2022/11/01 10:22:10;;;;;;;17.10;2.42;;;16.90;99.90;;;;;;5104140;28;20053;-72
2022/11/01 10:24:48;;;;;;;10.00;2.33;;;16.90;99.90;;;;;;5108207;28;20019;-73
2022/11/01 10:27:18;;;;;;;11.45;2.10;;;16.90;99.90;;;;;;5089800;28;20570;-73
2022/11/01 10:29:54;;;;;;;13.27;2.30;;;16.80;99.90;;;;;;5091733;28;20034;-74
2022/11/01 10:32:36;;;;;;;11.93;2.08;;;16.90;99.90;;;;;;5106224;28;20464;-73
2022/11/01 10:35:13;;;;;;;11.73;2.53;;;16.80;99.90;;;;;;5091660;28;20024;-72
2022/11/01 10:38:02;;;;;;;12.88;2.25;;;16.80;99.90;;;;;;5093717;28;20015;-74
2022/11/01 10:40:35;;;;;;;10.43;2.28;;;16.90;99.90;;;;;;5094926;28;20097;-72
2022/11/01 10:43:01;;;;;;;10.48;1.95;;;17.00;99.90;;;;;;5088869;28;20035;-72
2022/11/01 10:45:26;;;;;;;9.32;2.47;;;17.10;99.90;;;;;;5107048;28;20020;-72
2022/11/01 10:47:56;;;;;;;11.15;2.08;;;17.10;99.90;;;;;;5106237;28;20419;-73
2022/11/01 10:50:24;;;;;;;13.73;2.10;;;17.20;99.90;;;;;;5082135;28;20023;-72
2022/11/01 10:52:52;;;;;;;9.40;1.98;;;17.20;99.90;;;;;;5107245;28;20020;-72
2022/11/01 10:55:36;;;;;;;12.00;2.45;;;17.20;99.90;;;;;;5108511;28;20077;-72
2022/11/01 10:58:20;;;;;;;14.15;2.10;;;17.30;99.90;;;;;;5103324;28;20031;-71
2022/11/01 11:00:47;;;;;;;11.82;2.58;;;17.30;99.90;;;;;;5109336;28;20039;-72
2022/11/01 11:03:25;;;;;;;12.13;2.25;;;17.40;99.90;;;;;;5083353;28;20026;-72
2022/11/01 11:05:53;;;;;;;18.10;2.35;;;17.30;99.90;;;;;;5105979;28;20057;-73
2022/11/01 11:08:22;;;;;;;10.32;2.15;;;17.30;99.90;;;;;;5102468;28;20024;-72
2022/11/01 11:10:49;;;;;;;13.32;2.67;;;17.20;99.90;;;;;;5104186;28;20031;-73
2022/11/01 11:13:19;;;;;;;12.77;2.38;;;17.20;99.90;;;;;;5101377;27;20015;-73
2022/11/01 11:16:04;;;;;;;12.40;1.77;;;17.30;99.90;;;;;;5105511;28;20032;-73
2022/11/01 11:18:34;;;;;;;8.43;2.00;;;17.40;99.90;;;;;;5108814;28;20047;-73
2022/11/01 11:21:07;;;;;;;12.18;2.58;;;17.40;99.90;;;;;;5103661;28;20090;-73
2022/11/01 11:23:39;;;;;;;7.97;2.08;;;17.50;99.90;;;;;;5102835;28;20016;-73
2022/11/01 11:26:12;;;;;;;16.83;2.53;;;17.50;99.90;;;;;;5084734;28;20688;-73
2022/11/01 11:28:43;;;;;;;13.73;2.42;;;17.50;99.90;;;;;;5107010;28;20144;-73
2022/11/01 11:31:29;;;;;;;14.02;2.50;;;17.40;99.90;;;;;;5106442;28;20065;-72
2022/11/01 11:34:18;;;;;;;10.93;2.25;;;17.40;99.90;;;;;;5108997;28;20028;-73
2022/11/01 11:36:48;;;;;;;11.18;2.13;;;17.60;99.90;;;;;;5106087;28;20073;-72
2022/11/01 11:39:29;;;;;;;8.05;1.98;;;17.60;99.90;;;;;;5105872;28;20411;-73
2022/11/01 11:42:12;;;;;;;12.55;2.75;;;17.60;99.90;;;;;;5104447;28;20032;-72
2022/11/01 11:44:40;;;;;;;9.75;2.15;;;17.60;99.90;;;;;;5102276;28;20560;-73
2022/11/01 11:47:16;;;;;;;12.77;2.25;;;17.60;99.90;;;;;;5109881;28;20071;-73
2022/11/01 11:49:42;;;;;;;9.57;1.83;;;17.60;99.90;;;;;;5099797;28;20488;-73
2022/11/01 11:52:20;;;;;;;12.85;2.17;;;17.60;99.90;;;;;;5091692;28;20032;-73
2022/11/01 11:54:46;;;;;;;11.50;2.17;;;17.50;99.90;;;;;;5099360;28;20114;-72
2022/11/01 11:57:23;;;;;;;6.15;1.88;;;17.40;99.90;;;;;;5103362;27;20027;-70
2022/11/01 11:59:58;;;;;;;7.10;1.63;;;17.30;99.90;;;;;;5106169;28;20510;-70
2022/11/01 12:02:30;;;;;;;7.32;2.03;;;17.30;99.90;;;;;;5102551;28;20031;-70
2022/11/01 12:05:00;;;;;;;8.68;2.38;;;17.30;99.90;;;;;;5104509;28;20045;-71
2022/11/01 12:07:50;;;;;;;13.52;2.10;;;17.30;99.90;;;;;;5087490;28;20043;-71
2022/11/01 12:10:37;;;;;;;9.43;2.10;;;17.30;99.90;;;;;;5105452;28;20476;-71
2022/11/01 12:13:40;;;;;;;8.82;1.60;;;17.50;99.90;;;;;;5108240;28;20081;-71
2022/11/01 12:16:11;;;;;;;15.98;2.40;;;17.60;99.90;;;;;;5104329;28;20540;-72
2022/11/01 12:18:55;;;;;;;8.75;2.00;;;17.60;99.90;;;;;;5101283;28;20127;-73
2022/11/01 12:21:32;;;;;;;12.63;1.85;;;17.60;99.90;;;;;;5100549;28;20035;-73
2022/11/01 12:24:20;;;;;;;7.88;1.83;;;17.40;99.90;;;;;;5091387;28;20019;-73
2022/11/01 12:26:48;;;;;;;7.88;1.73;;;17.40;99.90;;;;;;5101139;28;20669;-73
2022/11/01 12:29:36;;;;;;;9.75;1.75;;;17.40;99.90;;;;;;5104037;28;20023;-73
2022/11/01 12:32:19;;;;;;;9.82;1.73;;;17.40;99.90;;;;;;5108190;28;20023;-74
2022/11/01 12:34:49;;;;;;;5.90;1.85;;;17.50;99.90;;;;;;5102066;28;20042;-73
2022/11/01 12:37:29;;;;;;;9.07;2.03;;;17.50;99.90;;;;;;5099808;28;20035;-72
2022/11/01 12:40:15;;;;;;;8.85;1.63;;;17.50;99.90;;;;;;5103179;28;20109;-73
2022/11/01 12:42:50;;;;;;;5.90;1.77;;;17.60;99.90;;;;;;5105305;28;20102;-73
2022/11/01 12:45:51;;;;;;;8.20;1.77;;;17.60;99.90;;;;;;5104198;28;20045;-72
2022/11/01 12:48:49;;;;;;;5.13;1.50;;;17.50;99.90;;;;;;5073001;28;20061;-74
2022/11/01 12:51:24;;;;;;;7.57;1.50;;;17.50;99.90;;;;;;5104444;28;20024;-73
2022/11/01 12:54:04;;;;;;;4.30;1.20;;;17.40;99.90;;;;;;5107888;28;20027;-73
2022/11/01 12:56:30;;;;;;;7.80;1.98;;;17.40;99.90;;;;;;5101701;28;20426;-73
2022/11/01 12:58:57;;;;;;;8.80;1.40;;;17.50;99.90;;;;;;5108347;28;20034;-73
2022/11/01 13:01:42;;;;;;;6.30;1.63;;;17.50;99.90;;;;;;5108697;28;20481;-74
2022/11/01 13:04:38;;;;;;;8.40;2.03;;;17.50;99.90;;;;;;5104104;28;20025;-73